createdAt,value
2018-08-24T00:01:20.293Z,19.39
2018-08-24T00:03:53.727Z,19.36
2018-08-24T00:06:27.162Z,19.37
2018-08-24T00:09:00.621Z,19.34
2018-08-24T00:11:34.038Z,19.35
2018-08-24T00:14:07.503Z,19.43
2018-08-24T00:16:42.608Z,19.50
2018-08-24T00:19:17.112Z,19.49
2018-08-24T00:21:50.529Z,19.53
2018-08-24T00:24:23.930Z,19.58
2018-08-24T00:26:57.333Z,19.62
2018-08-24T00:29:30.751Z,19.66
2018-08-24T00:32:04.186Z,19.70
2018-08-24T00:34:37.564Z,19.76
2018-08-24T00:37:11.016Z,19.78
2018-08-24T00:39:45.159Z,19.77
2018-08-24T00:42:18.597Z,19.81
2018-08-24T00:44:52.015Z,19.85
2018-08-24T00:47:25.462Z,19.87
2018-08-24T00:49:58.873Z,19.88
2018-08-24T00:52:32.307Z,19.89
2018-08-24T00:55:05.741Z,19.90
2018-08-24T00:57:39.164Z,19.87
2018-08-24T01:00:12.637Z,19.86
2018-08-24T01:02:46.060Z,19.85
2018-08-24T01:05:19.490Z,19.83
2018-08-24T01:07:58.377Z,19.83
2018-08-24T01:10:31.807Z,19.82
2018-08-24T01:13:09.384Z,19.80
2018-08-24T01:15:52.181Z,19.76
2018-08-24T01:18:30.869Z,19.74
2018-08-24T01:21:04.440Z,19.71
2018-08-24T01:23:37.869Z,19.69
2018-08-24T01:26:11.299Z,19.67
2018-08-24T01:28:44.721Z,19.68
2018-08-24T01:31:18.107Z,19.73
2018-08-24T01:33:51.518Z,19.74
2018-08-24T01:36:24.979Z,19.70
2018-08-24T01:38:58.468Z,19.68
2018-08-24T01:41:31.852Z,19.67
2018-08-24T01:44:05.267Z,19.61
2018-08-24T01:46:38.664Z,19.68
2018-08-24T01:49:12.103Z,19.66
2018-08-24T01:51:45.495Z,19.63
2018-08-24T01:54:18.926Z,19.64
2018-08-24T01:56:52.335Z,19.62
2018-08-24T01:59:25.830Z,19.62
2018-08-24T02:01:59.271Z,19.61
2018-08-24T02:04:32.701Z,19.59
2018-08-24T02:07:06.088Z,19.55
2018-08-24T02:09:39.507Z,19.53
2018-08-24T02:12:18.260Z,19.51
2018-08-24T02:14:51.670Z,19.50
2018-08-24T02:17:30.395Z,19.46
2018-08-24T02:20:09.160Z,19.40
2018-08-24T02:22:42.581Z,19.40
2018-08-24T02:25:15.983Z,19.34
2018-08-24T02:27:49.423Z,19.28
2018-08-24T02:30:22.839Z,19.26
2018-08-24T02:32:56.272Z,19.27
2018-08-24T02:35:29.736Z,19.21
2018-08-24T02:38:04.142Z,19.12
2018-08-24T02:40:37.556Z,19.03
2018-08-24T02:43:10.989Z,19.10
2018-08-24T02:45:44.405Z,19.14
2018-08-24T02:48:17.803Z,19.15
2018-08-24T02:50:51.239Z,19.18
2018-08-24T02:53:24.652Z,19.21
2018-08-24T02:55:58.151Z,19.22
2018-08-24T02:58:31.596Z,19.23
2018-08-24T03:01:05.000Z,19.09
2018-08-24T03:03:38.382Z,19.21
2018-08-24T03:06:11.810Z,19.24
2018-08-24T03:08:45.664Z,19.22
2018-08-24T03:11:19.094Z,19.20
2018-08-24T03:13:52.556Z,19.16
2018-08-24T03:16:26.061Z,19.17
2018-08-24T03:18:59.431Z,19.17
2018-08-24T03:21:32.897Z,19.16
2018-08-24T03:24:06.397Z,19.11
2018-08-24T03:26:40.121Z,19.11
2018-08-24T03:29:13.622Z,19.04
2018-08-24T03:31:47.061Z,19.03
2018-08-24T03:34:20.443Z,19.00
2018-08-24T03:36:53.855Z,18.93
2018-08-24T03:39:27.297Z,18.94
2018-08-24T03:42:00.727Z,18.93
2018-08-24T03:44:34.119Z,18.90
2018-08-24T03:47:07.583Z,18.91
2018-08-24T03:49:40.983Z,18.91
2018-08-24T03:52:14.404Z,18.85
2018-08-24T03:54:47.817Z,18.77
2018-08-24T03:57:21.261Z,18.74
2018-08-24T03:59:54.694Z,18.77
2018-08-24T04:02:28.122Z,18.81
2018-08-24T04:05:02.037Z,18.77
2018-08-24T04:07:35.473Z,18.81
2018-08-24T04:10:08.940Z,18.85
2018-08-24T04:12:42.390Z,18.92
2018-08-24T04:15:15.799Z,18.99
2018-08-24T04:17:49.791Z,19.06
2018-08-24T04:20:23.191Z,19.12
2018-08-24T04:22:56.555Z,19.18
2018-08-24T04:25:29.995Z,19.26
2018-08-24T04:28:03.421Z,19.31
2018-08-24T04:30:36.857Z,19.36
2018-08-24T04:33:10.283Z,19.21
2018-08-24T04:35:43.738Z,19.45
2018-08-24T04:38:17.174Z,19.54
2018-08-24T04:40:50.589Z,19.58
2018-08-24T04:43:24.224Z,19.61
2018-08-24T04:45:57.781Z,19.67
2018-08-24T04:48:31.184Z,19.72
2018-08-24T04:51:04.595Z,19.71
2018-08-24T04:53:37.984Z,19.67
2018-08-24T04:56:11.413Z,19.68
2018-08-24T04:58:44.791Z,19.70
2018-08-24T05:01:18.265Z,19.73
2018-08-24T05:03:51.678Z,19.77
2018-08-24T05:06:25.143Z,19.79
2018-08-24T05:08:58.506Z,19.87
2018-08-24T05:11:31.934Z,19.91
2018-08-24T05:14:05.365Z,19.97
2018-08-24T05:16:38.783Z,20.05
2018-08-24T05:19:12.146Z,20.08
2018-08-24T05:21:45.526Z,20.12
2018-08-24T05:24:18.909Z,20.11
2018-08-24T05:26:52.299Z,20.16
2018-08-24T05:29:25.685Z,20.16
2018-08-24T05:31:59.125Z,20.14
2018-08-24T05:34:32.513Z,20.22
2018-08-24T05:37:05.924Z,20.09
2018-08-24T05:39:39.317Z,19.95
2018-08-24T05:42:12.823Z,19.85
2018-08-24T05:44:46.189Z,19.74
2018-08-24T05:47:19.641Z,19.68
2018-08-24T05:49:53.052Z,19.75
2018-08-24T05:52:26.471Z,19.64
2018-08-24T05:54:59.847Z,19.52
2018-08-24T05:57:33.236Z,19.63
2018-08-24T06:00:06.663Z,19.76
2018-08-24T06:02:40.075Z,19.67
2018-08-24T06:05:13.508Z,19.78
2018-08-24T06:07:46.921Z,19.91
2018-08-24T06:10:20.746Z,20.06
2018-08-24T06:12:54.137Z,20.17
2018-08-24T06:15:27.856Z,20.30
2018-08-24T06:18:01.314Z,20.42
2018-08-24T06:20:34.721Z,20.54
2018-08-24T06:23:08.119Z,20.58
2018-08-24T06:25:41.508Z,20.66
2018-08-24T06:28:14.899Z,20.66
2018-08-24T06:30:48.427Z,20.53
2018-08-24T06:33:23.921Z,20.69
2018-08-24T06:35:57.292Z,20.58
2018-08-24T06:38:30.724Z,20.71
2018-08-24T06:41:04.103Z,20.84
2018-08-24T06:43:37.532Z,20.74
2018-08-24T06:46:10.922Z,20.81
2018-08-24T06:48:44.391Z,20.73
2018-08-24T06:51:18.025Z,20.91
2018-08-24T06:53:51.463Z,21.00
2018-08-24T06:56:24.887Z,21.27
2018-08-24T06:58:58.291Z,21.27
2018-08-24T07:01:31.686Z,21.41
2018-08-24T07:04:05.107Z,21.56
2018-08-24T07:06:38.489Z,21.70
2018-08-24T07:09:11.983Z,21.66
2018-08-24T07:11:45.351Z,21.54
2018-08-24T07:14:18.800Z,21.51
2018-08-24T07:16:56.351Z,21.38
2018-08-24T07:19:30.629Z,21.22
2018-08-24T07:22:04.009Z,21.19
2018-08-24T07:24:37.396Z,21.08
2018-08-24T07:27:10.802Z,21.03
2018-08-24T07:29:44.204Z,21.07
2018-08-24T07:32:17.606Z,21.02
2018-08-24T07:34:50.984Z,21.05
2018-08-24T07:37:24.396Z,20.90
2018-08-24T07:39:57.810Z,20.78
2018-08-24T07:42:31.212Z,20.77
2018-08-24T07:45:04.644Z,20.84
2018-08-24T07:47:38.080Z,20.70
2018-08-24T07:50:11.460Z,20.72
2018-08-24T07:52:44.859Z,20.59
2018-08-24T07:55:18.280Z,20.58
2018-08-24T07:57:51.655Z,20.58
2018-08-24T08:00:25.099Z,20.76
2018-08-24T08:02:58.538Z,20.80
2018-08-24T08:05:31.980Z,21.03
2018-08-24T08:08:05.422Z,21.32
2018-08-24T08:10:40.755Z,21.63
2018-08-24T08:13:14.160Z,21.72
2018-08-24T08:15:47.562Z,21.84
2018-08-24T08:18:21.161Z,21.90
2018-08-24T08:20:54.563Z,22.08
2018-08-24T08:23:27.982Z,22.23
2018-08-24T08:26:01.409Z,22.49
2018-08-24T08:28:34.814Z,22.29
2018-08-24T08:31:08.200Z,22.29
2018-08-24T08:33:41.611Z,22.27
2018-08-24T08:36:14.968Z,22.13
2018-08-24T08:38:48.434Z,21.86
2018-08-24T08:41:21.878Z,21.92
2018-08-24T08:43:55.321Z,22.10
2018-08-24T08:46:28.702Z,22.28
2018-08-24T08:49:02.176Z,22.11
2018-08-24T08:51:35.587Z,21.97
2018-08-24T08:54:09.023Z,21.95
2018-08-24T08:56:42.431Z,21.89
2018-08-24T08:59:15.845Z,21.79
2018-08-24T09:01:49.219Z,21.53
2018-08-24T09:04:22.631Z,21.47
2018-08-24T09:06:56.015Z,21.42
2018-08-24T09:09:29.414Z,21.36
2018-08-24T09:12:02.843Z,21.26
2018-08-24T09:14:36.350Z,21.18
2018-08-24T09:17:15.106Z,21.14
2018-08-24T09:19:54.023Z,21.16
2018-08-24T09:22:32.841Z,21.11
2018-08-24T09:25:11.569Z,21.25
2018-08-24T09:28:52.527Z,21.34
2018-08-24T09:31:28.223Z,21.47
2018-08-24T09:34:01.671Z,21.49
2018-08-24T09:36:35.044Z,21.49
2018-08-24T09:39:09.409Z,21.42
2018-08-24T09:41:42.827Z,21.57
2018-08-24T09:44:16.241Z,21.67
2018-08-24T09:46:54.949Z,21.77
2018-08-24T09:49:32.911Z,21.89
2018-08-24T09:52:11.478Z,21.84
2018-08-24T09:54:44.865Z,21.87
2018-08-24T09:57:18.308Z,21.95
2018-08-24T09:59:51.716Z,21.99
2018-08-24T10:02:29.247Z,22.15
2018-08-24T10:05:08.085Z,22.34
2018-08-24T10:07:44.974Z,22.58
2018-08-24T10:10:18.374Z,22.63
2018-08-24T10:12:51.774Z,22.67
2018-08-24T10:15:25.936Z,22.76
2018-08-24T10:17:59.308Z,22.80
2018-08-24T10:20:32.725Z,22.78
2018-08-24T10:23:06.223Z,22.82
2018-08-24T10:25:39.562Z,22.68
2018-08-24T10:28:12.943Z,22.51
2018-08-24T10:30:46.932Z,22.31
2018-08-24T10:33:20.321Z,22.15
2018-08-24T10:35:53.782Z,22.03
2018-08-24T10:38:27.232Z,21.80
2018-08-24T10:41:00.692Z,21.84
2018-08-24T10:43:34.048Z,21.79
2018-08-24T10:46:07.514Z,21.79
2018-08-24T10:48:40.917Z,21.81
2018-08-24T10:51:14.426Z,21.81
2018-08-24T10:53:47.847Z,21.81
2018-08-24T10:56:21.242Z,21.92
2018-08-24T10:58:54.644Z,21.88
2018-08-24T11:01:28.027Z,21.53
2018-08-24T11:04:01.463Z,21.26
2018-08-24T11:06:34.901Z,21.13
2018-08-24T11:09:09.947Z,21.09
2018-08-24T11:11:49.995Z,21.06
2018-08-24T11:14:23.406Z,21.23
2018-08-24T11:16:56.899Z,21.29
2018-08-24T11:19:30.231Z,21.19
2018-08-24T11:22:03.644Z,21.39
2018-08-24T11:24:37.020Z,21.39
2018-08-24T11:27:10.444Z,21.36
2018-08-24T11:29:43.864Z,21.46
2018-08-24T11:32:17.275Z,21.38
2018-08-24T11:34:50.693Z,21.29
2018-08-24T11:37:24.114Z,21.35
2018-08-24T11:39:57.512Z,21.36
2018-08-24T11:42:30.959Z,21.32
2018-08-24T11:45:04.377Z,21.40
2018-08-24T11:47:37.810Z,21.43
2018-08-24T11:50:11.195Z,21.49
2018-08-24T11:52:44.645Z,21.55
2018-08-24T11:55:18.289Z,21.73
2018-08-24T11:57:51.682Z,22.02
2018-08-24T12:00:31.053Z,22.53
2018-08-24T12:03:04.787Z,23.26
2018-08-24T12:05:38.174Z,23.45
2018-08-24T12:08:11.898Z,23.46
2018-08-24T12:10:45.175Z,23.52
2018-08-24T12:13:18.566Z,23.47
2018-08-24T12:15:52.083Z,23.29
2018-08-24T12:18:25.660Z,23.14
2018-08-24T12:20:58.975Z,22.71
2018-08-24T12:23:33.424Z,22.58
2018-08-24T12:26:06.880Z,22.60
2018-08-24T12:28:40.344Z,22.45
2018-08-24T12:31:13.707Z,22.59
2018-08-24T12:33:47.124Z,22.91
2018-08-24T12:36:20.552Z,23.13
2018-08-24T12:38:54.017Z,23.50
2018-08-24T12:41:27.387Z,23.82
2018-08-24T12:44:00.791Z,24.05
2018-08-24T12:46:34.163Z,24.28
2018-08-24T12:49:07.660Z,24.78
2018-08-24T12:51:41.018Z,25.04
2018-08-24T12:54:14.581Z,24.95
2018-08-24T12:56:48.104Z,24.90
2018-08-24T12:59:21.548Z,24.53
2018-08-24T13:01:54.951Z,24.28
2018-08-24T13:04:30.022Z,24.14
2018-08-24T13:07:04.256Z,24.18
2018-08-24T13:09:38.719Z,24.28
2018-08-24T13:12:12.211Z,24.39
2018-08-24T13:14:45.571Z,24.42
2018-08-24T13:17:19.546Z,24.51
2018-08-24T13:19:52.930Z,24.28
2018-08-24T13:22:26.308Z,24.38
2018-08-24T13:24:59.782Z,24.43
2018-08-24T13:27:33.413Z,24.50
2018-08-24T13:30:07.920Z,24.47
2018-08-24T13:32:41.457Z,24.44
2018-08-24T13:35:14.970Z,24.21
2018-08-24T13:37:48.944Z,24.14
2018-08-24T13:40:23.120Z,23.94
2018-08-24T13:42:57.085Z,23.96
2018-08-24T13:45:30.570Z,23.70
2018-08-24T13:48:04.406Z,23.46
2018-08-24T13:50:39.428Z,23.42
2018-08-24T13:53:12.847Z,23.32
2018-08-24T13:55:46.257Z,23.43
2018-08-24T13:58:19.720Z,23.52
2018-08-24T14:00:55.388Z,23.54
2018-08-24T14:03:28.886Z,23.61
2018-08-24T14:06:02.269Z,23.71
2018-08-24T14:08:35.823Z,23.89
2018-08-24T14:11:09.337Z,23.96
2018-08-24T14:13:42.930Z,24.09
2018-08-24T14:16:16.328Z,23.95
2018-08-24T14:18:49.745Z,23.90
2018-08-24T14:21:23.154Z,23.73
2018-08-24T14:23:56.539Z,23.61
2018-08-24T14:26:30.042Z,23.56
2018-08-24T14:29:03.526Z,23.44
2018-08-24T14:31:36.958Z,23.42
2018-08-24T14:34:10.395Z,23.34
2018-08-24T14:36:43.766Z,23.38
2018-08-24T14:39:17.148Z,23.38
2018-08-24T14:41:50.531Z,23.23
2018-08-24T14:44:23.979Z,23.13
2018-08-24T14:46:57.431Z,23.04
2018-08-24T14:49:30.862Z,23.14
2018-08-24T14:52:04.313Z,23.27
2018-08-24T14:54:37.742Z,23.34
2018-08-24T14:57:11.273Z,23.26
2018-08-24T14:59:44.864Z,23.24
2018-08-24T15:02:18.365Z,23.10
2018-08-24T15:04:51.761Z,22.93
2018-08-24T15:07:25.217Z,22.63
2018-08-24T15:09:58.796Z,22.42
2018-08-24T15:12:32.180Z,22.47
2018-08-24T15:15:05.627Z,22.59
2018-08-24T15:17:39.004Z,22.62
2018-08-24T15:20:12.421Z,22.60
2018-08-24T15:22:45.797Z,22.55
2018-08-24T15:25:19.195Z,22.42
2018-08-24T15:27:52.590Z,22.33
2018-08-24T15:30:26.011Z,22.20
2018-08-24T15:32:59.383Z,21.98
2018-08-24T15:35:32.980Z,21.84
2018-08-24T15:38:06.347Z,21.81
2018-08-24T15:40:39.765Z,21.78
2018-08-24T15:43:13.162Z,21.82
2018-08-24T15:45:46.556Z,21.83
2018-08-24T15:48:19.947Z,21.91
2018-08-24T15:50:54.245Z,21.63
2018-08-24T15:53:27.632Z,21.63
2018-08-24T15:56:01.114Z,21.67
2018-08-24T15:58:34.553Z,21.67
2018-08-24T16:01:07.956Z,21.75
2018-08-24T16:03:41.418Z,21.68
2018-08-24T16:06:14.877Z,21.66
2018-08-24T16:08:48.262Z,21.60
2018-08-24T16:11:21.660Z,21.64
2018-08-24T16:13:55.037Z,21.53
2018-08-24T16:16:28.435Z,21.61
2018-08-24T16:19:01.894Z,21.53
2018-08-24T16:21:35.431Z,21.53
2018-08-24T16:24:09.123Z,21.54
2018-08-24T16:26:42.512Z,21.45
2018-08-24T16:29:15.884Z,21.39
2018-08-24T16:31:49.411Z,21.42
2018-08-24T16:34:23.987Z,21.51
2018-08-24T16:37:00.099Z,21.51
2018-08-24T16:39:33.719Z,21.49
2018-08-24T16:42:07.444Z,21.52
2018-08-24T16:44:40.854Z,21.57
2018-08-24T16:47:14.307Z,21.50
2018-08-24T16:49:47.695Z,21.35
2018-08-24T16:52:21.079Z,21.42
2018-08-24T16:55:01.999Z,21.43
2018-08-24T16:57:35.517Z,21.40
2018-08-24T17:00:09.496Z,21.43
2018-08-24T17:02:42.970Z,21.42
2018-08-24T17:05:16.390Z,21.42
2018-08-24T17:07:49.752Z,21.41
2018-08-24T17:10:23.375Z,21.25
2018-08-24T17:12:57.044Z,21.07
2018-08-24T17:15:30.683Z,21.02
2018-08-24T17:18:04.190Z,20.94
2018-08-24T17:20:37.965Z,20.81
2018-08-24T17:23:11.317Z,20.91
2018-08-24T17:25:44.728Z,21.02
2018-08-24T17:28:18.099Z,21.02
2018-08-24T17:30:51.519Z,20.97
2018-08-24T17:33:24.896Z,20.93
2018-08-24T17:35:58.353Z,20.87
2018-08-24T17:38:31.755Z,20.68
2018-08-24T17:41:05.138Z,20.69
2018-08-24T17:43:38.597Z,20.64
2018-08-24T17:46:12.028Z,20.59
2018-08-24T17:48:45.424Z,20.56
2018-08-24T17:51:18.843Z,20.52
2018-08-24T17:53:52.209Z,20.47
2018-08-24T17:56:25.638Z,20.43
2018-08-24T17:58:59.088Z,20.40
2018-08-24T18:01:32.593Z,20.22
2018-08-24T18:04:06.185Z,20.09
2018-08-24T18:06:40.916Z,19.94
2018-08-24T18:09:14.357Z,19.91
2018-08-24T18:11:47.807Z,19.92
2018-08-24T18:14:21.189Z,19.89
2018-08-24T18:16:54.620Z,19.80
2018-08-24T18:19:27.999Z,19.84
2018-08-24T18:22:02.341Z,19.79
2018-08-24T18:24:35.780Z,19.77
2018-08-24T18:27:09.133Z,19.80
2018-08-24T18:29:42.576Z,19.83
2018-08-24T18:32:16.083Z,19.85
2018-08-24T18:34:49.459Z,19.75
2018-08-24T18:37:22.907Z,19.67
2018-08-24T18:39:56.332Z,19.63
2018-08-24T18:42:29.887Z,19.62
2018-08-24T18:45:03.252Z,19.66
2018-08-24T18:47:37.225Z,19.60
2018-08-24T18:50:11.467Z,19.49
2018-08-24T18:52:44.925Z,19.51
2018-08-24T18:55:18.315Z,19.47
2018-08-24T18:57:51.740Z,19.41
2018-08-24T19:00:25.217Z,19.34
2018-08-24T19:02:58.613Z,19.31
2018-08-24T19:05:32.143Z,19.28
2018-08-24T19:08:09.935Z,19.25
2018-08-24T19:10:50.985Z,19.12
2018-08-24T19:13:25.201Z,19.16
2018-08-24T19:15:58.590Z,19.11
2018-08-24T19:18:37.214Z,19.13
2018-08-24T19:21:48.793Z,19.08
2018-08-24T19:24:22.230Z,19.08
2018-08-24T19:26:55.648Z,19.05
2018-08-24T19:29:34.452Z,19.02
2018-08-24T19:32:08.098Z,18.98
2018-08-24T19:34:41.488Z,18.94
2018-08-24T19:37:14.901Z,18.89
2018-08-24T19:39:53.700Z,18.86
2018-08-24T19:42:27.364Z,18.86
2018-08-24T19:45:00.821Z,18.84
2018-08-24T19:47:39.488Z,18.79
2018-08-24T19:50:12.875Z,18.72
2018-08-24T19:52:46.292Z,18.64
2018-08-24T19:55:19.665Z,18.57
2018-08-24T19:57:58.477Z,18.50
2018-08-24T20:00:32.735Z,18.45
2018-08-24T20:03:06.230Z,18.39
2018-08-24T20:05:39.645Z,18.29
2018-08-24T20:08:18.432Z,18.25
2018-08-24T20:10:52.032Z,18.17
2018-08-24T20:13:25.646Z,18.20
2018-08-24T20:16:04.658Z,18.25
2018-08-24T20:18:38.362Z,18.25
2018-08-24T20:21:11.915Z,18.28
2018-08-24T20:23:45.540Z,18.29
2018-08-24T20:26:19.519Z,18.25
2018-08-24T20:28:53.153Z,18.23
2018-08-24T20:31:26.793Z,18.22
2018-08-24T20:34:00.395Z,18.20
2018-08-24T20:36:34.387Z,18.13
2018-08-24T20:39:09.302Z,18.15
2018-08-24T20:41:43.262Z,18.07
2018-08-24T20:44:16.673Z,18.00
2018-08-24T20:46:50.035Z,17.92
2018-08-24T20:49:23.481Z,17.90
2018-08-24T20:51:57.432Z,17.84
2018-08-24T20:54:30.843Z,17.74
2018-08-24T20:57:05.058Z,17.81
2018-08-24T20:59:38.549Z,17.80
2018-08-24T21:02:12.428Z,17.80
2018-08-24T21:04:45.936Z,17.79
2018-08-24T21:07:19.313Z,17.81
2018-08-24T21:09:52.772Z,17.77
2018-08-24T21:12:28.533Z,17.77
2018-08-24T21:15:01.991Z,17.74
2018-08-24T21:17:35.647Z,17.67
2018-08-24T21:20:09.098Z,17.69
2018-08-24T21:22:42.499Z,17.67
2018-08-24T21:25:16.460Z,17.63
2018-08-24T21:27:50.353Z,17.63
2018-08-24T21:30:24.297Z,17.62
2018-08-24T21:32:58.105Z,17.58
2018-08-24T21:35:32.951Z,17.58
2018-08-24T21:38:08.775Z,17.55
2018-08-24T21:40:43.506Z,17.54
2018-08-24T21:43:17.449Z,17.46
2018-08-24T21:45:53.758Z,17.40
2018-08-24T21:48:28.789Z,17.31
2018-08-24T21:51:03.629Z,17.28
2018-08-24T21:53:38.305Z,17.20
2018-08-24T21:56:12.957Z,17.18
2018-08-24T21:58:46.921Z,17.16
2018-08-24T22:01:21.862Z,17.14
2018-08-24T22:03:56.521Z,17.09
2018-08-24T22:06:30.427Z,17.03
2018-08-24T22:09:06.990Z,16.98
2018-08-24T22:11:40.907Z,16.94
2018-08-24T22:14:15.324Z,16.84
2018-08-24T22:16:49.563Z,16.81
2018-08-24T22:19:26.855Z,16.75
2018-08-24T22:22:01.601Z,16.73
2018-08-24T22:24:35.335Z,16.73
2018-08-24T22:27:09.021Z,16.70
2018-08-24T22:29:42.847Z,16.66
2018-08-24T22:32:16.687Z,16.60
2018-08-24T22:34:50.625Z,16.53
2018-08-24T22:37:24.561Z,16.47
2018-08-24T22:39:58.515Z,16.32
2018-08-24T22:42:32.384Z,16.20
2018-08-24T22:45:06.340Z,16.14
2018-08-24T22:47:40.165Z,16.03
2018-08-24T22:50:15.012Z,15.91
2018-08-24T22:52:48.636Z,15.98
2018-08-24T22:55:22.269Z,15.88
2018-08-24T22:57:56.142Z,15.85
2018-08-24T23:00:29.845Z,15.79
2018-08-24T23:03:03.761Z,15.65
2018-08-24T23:05:37.694Z,15.45
2018-08-24T23:08:11.696Z,15.50
2018-08-24T23:10:45.574Z,15.43
2018-08-24T23:13:19.965Z,15.28
2018-08-24T23:15:53.886Z,15.03
2018-08-24T23:18:27.547Z,15.08
2018-08-24T23:21:01.287Z,14.96
2018-08-24T23:23:34.960Z,14.88
2018-08-24T23:26:09.418Z,14.72
2018-08-24T23:28:42.998Z,14.61
2018-08-24T23:31:16.667Z,14.67
2018-08-24T23:33:50.603Z,14.62
2018-08-24T23:36:24.282Z,14.78
2018-08-24T23:38:57.982Z,14.70
2018-08-24T23:41:32.559Z,14.48
2018-08-24T23:44:06.694Z,14.52
2018-08-24T23:46:40.432Z,14.46
2018-08-24T23:49:14.111Z,14.43
2018-08-24T23:51:48.102Z,14.54
2018-08-24T23:54:21.746Z,14.50
2018-08-24T23:56:55.679Z,14.39
2018-08-24T23:59:30.012Z,14.16
